createdAt,value
2018-02-14T16:11:58.373Z,98959
2018-02-14T16:14:25.773Z,98960
2018-02-14T16:16:53.171Z,98959
2018-02-14T16:19:20.603Z,98961
2018-02-14T16:21:47.985Z,98964
2018-02-14T16:24:15.381Z,98967
2018-02-14T16:26:42.813Z,98968
2018-02-14T16:29:10.201Z,98986
2018-02-14T16:31:38.553Z,98983
2018-02-14T16:34:06.042Z,98994
2018-02-14T16:36:33.426Z,99001
2018-02-14T16:39:00.805Z,98994
2018-02-14T16:41:28.225Z,98996
2018-02-14T16:43:55.610Z,99007
2018-02-14T16:46:23.029Z,99018
2018-02-14T16:48:50.450Z,99026
2018-02-14T16:51:17.877Z,99024
2018-02-14T16:53:45.253Z,99027
2018-02-14T16:56:12.678Z,99039
2018-02-14T16:58:40.070Z,99032
2018-02-14T17:01:07.478Z,99036
2018-02-14T17:03:34.917Z,99036
2018-02-14T17:06:02.531Z,99044
2018-02-14T17:08:29.909Z,99048
2018-02-14T17:10:57.421Z,99053
2018-02-14T17:13:24.810Z,99047
2018-02-14T17:15:52.196Z,99044
2018-02-14T17:18:19.643Z,99049
2018-02-14T17:20:47.033Z,99047
2018-02-14T17:23:14.427Z,99048
2018-02-14T17:25:41.850Z,99059
2018-02-14T17:28:09.237Z,99062
2018-02-14T17:30:36.618Z,99064
2018-02-14T17:33:04.069Z,99064
2018-02-14T17:35:31.449Z,99068
2018-02-14T17:37:58.824Z,99069
2018-02-14T17:40:26.269Z,99069
2018-02-14T17:42:53.669Z,99069
2018-02-14T17:45:21.067Z,99070
2018-02-14T17:47:48.450Z,99071
2018-02-14T17:50:15.889Z,99067
2018-02-14T17:52:43.276Z,99072
2018-02-14T17:55:10.659Z,99075
2018-02-14T17:57:38.358Z,99077
2018-02-14T18:00:05.906Z,99072
2018-02-14T18:02:33.358Z,99074
2018-02-14T18:05:00.771Z,99071
2018-02-14T18:07:28.173Z,99076
2018-02-14T18:09:55.570Z,99082
2018-02-14T18:12:22.986Z,99082
2018-02-14T18:14:50.430Z,99077
2018-02-14T18:17:17.838Z,99085
2018-02-14T18:19:45.213Z,99085
2018-02-14T18:22:12.633Z,99089
2018-02-14T18:24:40.295Z,99089
2018-02-14T18:27:07.674Z,99092
